sensor_id;sensor_type;location;lat;lon;timestamp;P1;durP1;ratioP1;P2;durP2;ratioP2
70866;SDS011;58487;53.474;49.470;2023-08-20T00:01:45;6.10;;;3.30;;
70866;SDS011;58487;53.474;49.470;2023-08-20T00:04:11;5.60;;;3.00;;
70866;SDS011;58487;53.474;49.470;2023-08-20T00:06:38;5.75;;;2.78;;
70866;SDS011;58487;53.474;49.470;2023-08-20T00:09:04;6.35;;;3.10;;
70866;SDS011;58487;53.474;49.470;2023-08-20T00:11:33;5.70;;;3.40;;
70866;SDS011;58487;53.474;49.470;2023-08-20T00:13:59;7.03;;;3.25;;
70866;SDS011;58487;53.474;49.470;2023-08-20T00:16:25;13.13;;;3.50;;
70866;SDS011;58487;53.474;49.470;2023-08-20T00:18:51;8.88;;;3.17;;
70866;SDS011;58487;53.474;49.470;2023-08-20T00:21:17;7.78;;;3.85;;
70866;SDS011;58487;53.474;49.470;2023-08-20T00:23:43;8.20;;;3.40;;
70866;SDS011;58487;53.474;49.470;2023-08-20T00:26:10;6.57;;;3.40;;
70866;SDS011;58487;53.474;49.470;2023-08-20T00:28:37;7.97;;;3.80;;
70866;SDS011;58487;53.474;49.470;2023-08-20T00:31:04;7.38;;;3.78;;
70866;SDS011;58487;53.474;49.470;2023-08-20T00:33:31;9.95;;;3.67;;
70866;SDS011;58487;53.474;49.470;2023-08-20T00:35:57;9.37;;;3.60;;
70866;SDS011;58487;53.474;49.470;2023-08-20T00:38:23;9.00;;;3.70;;
70866;SDS011;58487;53.474;49.470;2023-08-20T00:40:49;10.25;;;3.53;;
70866;SDS011;58487;53.474;49.470;2023-08-20T00:43:15;7.13;;;3.70;;
70866;SDS011;58487;53.474;49.470;2023-08-20T00:45:41;7.32;;;3.70;;
70866;SDS011;58487;53.474;49.470;2023-08-20T00:48:08;8.03;;;3.83;;
70866;SDS011;58487;53.474;49.470;2023-08-20T00:50:34;6.45;;;3.33;;
70866;SDS011;58487;53.474;49.470;2023-08-20T00:53:01;10.00;;;3.83;;
70866;SDS011;58487;53.474;49.470;2023-08-20T00:55:27;8.70;;;4.40;;
70866;SDS011;58487;53.474;49.470;2023-08-20T00:57:54;10.52;;;4.93;;
70866;SDS011;58487;53.474;49.470;2023-08-20T01:00:20;8.10;;;4.63;;
70866;SDS011;58487;53.474;49.470;2023-08-20T01:02:48;9.18;;;4.88;;
70866;SDS011;58487;53.474;49.470;2023-08-20T01:05:15;12.85;;;5.20;;
70866;SDS011;58487;53.474;49.470;2023-08-20T01:10:18;10.35;;;5.80;;
70866;SDS011;58487;53.474;49.470;2023-08-20T01:13:04;8.57;;;5.13;;
70866;SDS011;58487;53.474;49.470;2023-08-20T01:15:30;21.20;;;5.38;;
70866;SDS011;58487;53.474;49.470;2023-08-20T01:17:56;9.93;;;5.35;;
70866;SDS011;58487;53.474;49.470;2023-08-20T01:20:24;10.73;;;5.50;;
70866;SDS011;58487;53.474;49.470;2023-08-20T01:28:27;9.90;;;5.03;;
70866;SDS011;58487;53.474;49.470;2023-08-20T01:30:58;8.90;;;4.88;;
70866;SDS011;58487;53.474;49.470;2023-08-20T01:33:26;12.60;;;5.45;;
70866;SDS011;58487;53.474;49.470;2023-08-20T01:35:53;12.68;;;5.20;;
70866;SDS011;58487;53.474;49.470;2023-08-20T01:38:21;13.23;;;5.90;;
70866;SDS011;58487;53.474;49.470;2023-08-20T01:40:47;13.30;;;5.35;;
70866;SDS011;58487;53.474;49.470;2023-08-20T01:43:14;15.75;;;5.82;;
70866;SDS011;58487;53.474;49.470;2023-08-20T01:45:41;10.45;;;5.03;;
70866;SDS011;58487;53.474;49.470;2023-08-20T01:48:07;12.13;;;5.20;;
70866;SDS011;58487;53.474;49.470;2023-08-20T01:50:35;11.40;;;4.70;;
70866;SDS011;58487;53.474;49.470;2023-08-20T01:53:02;15.10;;;4.90;;
70866;SDS011;58487;53.474;49.470;2023-08-20T01:55:28;8.05;;;4.25;;
70866;SDS011;58487;53.474;49.470;2023-08-20T01:57:55;9.43;;;4.47;;
70866;SDS011;58487;53.474;49.470;2023-08-20T02:00:21;7.38;;;4.15;;
70866;SDS011;58487;53.474;49.470;2023-08-20T02:02:47;11.07;;;4.80;;
70866;SDS011;58487;53.474;49.470;2023-08-20T02:05:13;11.27;;;5.45;;
70866;SDS011;58487;53.474;49.470;2023-08-20T02:07:40;12.05;;;4.97;;
70866;SDS011;58487;53.474;49.470;2023-08-20T02:10:06;11.32;;;4.60;;
70866;SDS011;58487;53.474;49.470;2023-08-20T02:12:33;11.80;;;4.80;;
70866;SDS011;58487;53.474;49.470;2023-08-20T02:14:59;10.20;;;4.53;;
70866;SDS011;58487;53.474;49.470;2023-08-20T02:17:25;10.85;;;4.72;;
70866;SDS011;58487;53.474;49.470;2023-08-20T02:19:51;9.18;;;4.72;;
70866;SDS011;58487;53.474;49.470;2023-08-20T02:22:17;14.50;;;4.63;;
70866;SDS011;58487;53.474;49.470;2023-08-20T02:24:46;10.77;;;5.03;;
70866;SDS011;58487;53.474;49.470;2023-08-20T02:27:12;8.27;;;4.63;;
70866;SDS011;58487;53.474;49.470;2023-08-20T02:29:38;11.85;;;4.63;;
70866;SDS011;58487;53.474;49.470;2023-08-20T02:32:04;12.55;;;4.90;;
70866;SDS011;58487;53.474;49.470;2023-08-20T02:34:31;11.18;;;5.00;;
70866;SDS011;58487;53.474;49.470;2023-08-20T02:36:57;10.90;;;4.78;;
70866;SDS011;58487;53.474;49.470;2023-08-20T02:39:23;11.97;;;4.50;;
70866;SDS011;58487;53.474;49.470;2023-08-20T02:41:50;11.65;;;4.85;;
70866;SDS011;58487;53.474;49.470;2023-08-20T02:44:16;9.70;;;4.50;;
70866;SDS011;58487;53.474;49.470;2023-08-20T02:46:42;9.82;;;4.80;;
70866;SDS011;58487;53.474;49.470;2023-08-20T02:49:10;9.93;;;4.65;;
70866;SDS011;58487;53.474;49.470;2023-08-20T02:51:37;8.33;;;4.97;;
70866;SDS011;58487;53.474;49.470;2023-08-20T02:54:03;15.57;;;5.30;;
70866;SDS011;58487;53.474;49.470;2023-08-20T02:56:30;10.60;;;5.38;;
70866;SDS011;58487;53.474;49.470;2023-08-20T02:58:56;9.27;;;4.43;;
70866;SDS011;58487;53.474;49.470;2023-08-20T03:01:23;7.45;;;4.82;;
70866;SDS011;58487;53.474;49.470;2023-08-20T03:03:51;12.37;;;5.50;;
70866;SDS011;58487;53.474;49.470;2023-08-20T03:06:17;7.97;;;4.35;;
70866;SDS011;58487;53.474;49.470;2023-08-20T03:08:43;10.43;;;4.63;;
70866;SDS011;58487;53.474;49.470;2023-08-20T03:11:09;8.25;;;4.57;;
70866;SDS011;58487;53.474;49.470;2023-08-20T03:13:36;8.02;;;4.70;;
70866;SDS011;58487;53.474;49.470;2023-08-20T03:16:02;10.03;;;4.50;;
70866;SDS011;58487;53.474;49.470;2023-08-20T03:18:28;11.05;;;4.13;;
70866;SDS011;58487;53.474;49.470;2023-08-20T03:20:55;9.60;;;3.95;;
70866;SDS011;58487;53.474;49.470;2023-08-20T03:23:22;11.25;;;4.30;;
70866;SDS011;58487;53.474;49.470;2023-08-20T03:25:49;7.57;;;4.10;;
70866;SDS011;58487;53.474;49.470;2023-08-20T03:28:15;9.70;;;4.20;;
70866;SDS011;58487;53.474;49.470;2023-08-20T03:30:43;9.18;;;3.88;;
70866;SDS011;58487;53.474;49.470;2023-08-20T03:33:09;9.63;;;3.63;;
70866;SDS011;58487;53.474;49.470;2023-08-20T03:35:35;6.90;;;3.78;;
70866;SDS011;58487;53.474;49.470;2023-08-20T03:38:02;8.20;;;4.00;;
70866;SDS011;58487;53.474;49.470;2023-08-20T03:40:28;8.13;;;4.43;;
70866;SDS011;58487;53.474;49.470;2023-08-20T03:42:55;6.13;;;3.80;;
70866;SDS011;58487;53.474;49.470;2023-08-20T03:45:21;8.25;;;4.13;;
70866;SDS011;58487;53.474;49.470;2023-08-20T03:47:47;10.95;;;4.10;;
70866;SDS011;58487;53.474;49.470;2023-08-20T03:50:14;8.48;;;4.20;;
70866;SDS011;58487;53.474;49.470;2023-08-20T03:52:40;9.60;;;3.80;;
70866;SDS011;58487;53.474;49.470;2023-08-20T03:55:06;8.77;;;4.22;;
70866;SDS011;58487;53.474;49.470;2023-08-20T03:57:33;10.85;;;4.00;;
70866;SDS011;58487;53.474;49.470;2023-08-20T03:59:59;9.45;;;4.35;;
70866;SDS011;58487;53.474;49.470;2023-08-20T04:02:25;11.70;;;4.20;;
70866;SDS011;58487;53.474;49.470;2023-08-20T04:04:51;7.80;;;4.30;;
70866;SDS011;58487;53.474;49.470;2023-08-20T04:07:17;7.95;;;4.10;;
70866;SDS011;58487;53.474;49.470;2023-08-20T04:09:43;9.73;;;4.60;;
70866;SDS011;58487;53.474;49.470;2023-08-20T04:12:09;9.95;;;4.25;;
70866;SDS011;58487;53.474;49.470;2023-08-20T04:14:35;10.07;;;4.47;;
70866;SDS011;58487;53.474;49.470;2023-08-20T04:17:01;10.63;;;4.67;;
70866;SDS011;58487;53.474;49.470;2023-08-20T04:19:27;13.23;;;4.70;;
70866;SDS011;58487;53.474;49.470;2023-08-20T04:21:53;9.20;;;4.60;;
70866;SDS011;58487;53.474;49.470;2023-08-20T04:24:19;8.40;;;4.18;;
70866;SDS011;58487;53.474;49.470;2023-08-20T04:26:45;11.23;;;4.37;;
70866;SDS011;58487;53.474;49.470;2023-08-20T04:29:11;7.60;;;4.30;;
70866;SDS011;58487;53.474;49.470;2023-08-20T04:31:37;10.35;;;4.60;;
70866;SDS011;58487;53.474;49.470;2023-08-20T04:34:03;11.00;;;4.40;;
70866;SDS011;58487;53.474;49.470;2023-08-20T04:36:29;8.35;;;4.35;;
70866;SDS011;58487;53.474;49.470;2023-08-20T04:38:55;7.17;;;3.87;;
70866;SDS011;58487;53.474;49.470;2023-08-20T04:41:21;10.27;;;4.63;;
70866;SDS011;58487;53.474;49.470;2023-08-20T04:43:47;8.13;;;4.28;;
70866;SDS011;58487;53.474;49.470;2023-08-20T04:46:13;8.98;;;3.97;;
70866;SDS011;58487;53.474;49.470;2023-08-20T04:48:40;9.43;;;3.90;;
70866;SDS011;58487;53.474;49.470;2023-08-20T04:51:06;12.17;;;3.77;;
70866;SDS011;58487;53.474;49.470;2023-08-20T04:53:32;7.90;;;3.80;;
70866;SDS011;58487;53.474;49.470;2023-08-20T04:56:00;6.47;;;3.88;;
70866;SDS011;58487;53.474;49.470;2023-08-20T04:58:26;12.32;;;4.05;;
70866;SDS011;58487;53.474;49.470;2023-08-20T05:00:52;14.38;;;4.70;;
70866;SDS011;58487;53.474;49.470;2023-08-20T05:03:18;9.00;;;4.20;;
70866;SDS011;58487;53.474;49.470;2023-08-20T05:05:49;14.55;;;5.30;;
70866;SDS011;58487;53.474;49.470;2023-08-20T05:08:16;10.13;;;4.03;;
70866;SDS011;58487;53.474;49.470;2023-08-20T05:10:42;14.95;;;4.95;;
70866;SDS011;58487;53.474;49.470;2023-08-20T05:13:08;16.90;;;5.93;;
70866;SDS011;58487;53.474;49.470;2023-08-20T05:15:34;8.13;;;4.10;;
70866;SDS011;58487;53.474;49.470;2023-08-20T05:18:00;9.75;;;3.92;;
70866;SDS011;58487;53.474;49.470;2023-08-20T05:20:26;10.63;;;4.85;;
70866;SDS011;58487;53.474;49.470;2023-08-20T05:22:52;9.40;;;4.15;;
70866;SDS011;58487;53.474;49.470;2023-08-20T05:25:20;11.63;;;4.35;;
70866;SDS011;58487;53.474;49.470;2023-08-20T05:27:46;7.63;;;4.23;;
70866;SDS011;58487;53.474;49.470;2023-08-20T05:30:12;13.05;;;4.30;;
70866;SDS011;58487;53.474;49.470;2023-08-20T05:32:38;9.68;;;4.40;;
70866;SDS011;58487;53.474;49.470;2023-08-20T05:35:05;9.52;;;4.13;;
70866;SDS011;58487;53.474;49.470;2023-08-20T05:37:31;8.60;;;4.00;;
70866;SDS011;58487;53.474;49.470;2023-08-20T05:39:57;11.73;;;5.30;;
70866;SDS011;58487;53.474;49.470;2023-08-20T05:42:23;7.32;;;3.80;;
70866;SDS011;58487;53.474;49.470;2023-08-20T05:44:49;9.02;;;3.25;;
70866;SDS011;58487;53.474;49.470;2023-08-20T05:47:15;8.88;;;3.38;;
70866;SDS011;58487;53.474;49.470;2023-08-20T05:49:41;8.98;;;3.85;;
70866;SDS011;58487;53.474;49.470;2023-08-20T05:52:07;8.40;;;4.27;;
70866;SDS011;58487;53.474;49.470;2023-08-20T05:54:34;10.98;;;3.80;;
70866;SDS011;58487;53.474;49.470;2023-08-20T05:57:00;8.18;;;3.55;;
70866;SDS011;58487;53.474;49.470;2023-08-20T05:59:27;8.57;;;4.30;;
70866;SDS011;58487;53.474;49.470;2023-08-20T06:01:53;11.45;;;3.35;;
70866;SDS011;58487;53.474;49.470;2023-08-20T06:04:20;10.00;;;2.87;;
70866;SDS011;58487;53.474;49.470;2023-08-20T06:06:47;7.65;;;3.20;;
70866;SDS011;58487;53.474;49.470;2023-08-20T06:09:13;12.85;;;3.20;;
70866;SDS011;58487;53.474;49.470;2023-08-20T06:11:40;11.27;;;3.00;;
70866;SDS011;58487;53.474;49.470;2023-08-20T06:14:06;15.77;;;3.15;;
70866;SDS011;58487;53.474;49.470;2023-08-20T06:16:33;11.57;;;3.03;;
70866;SDS011;58487;53.474;49.470;2023-08-20T06:18:59;8.20;;;2.95;;
70866;SDS011;58487;53.474;49.470;2023-08-20T06:21:25;9.88;;;3.30;;
70866;SDS011;58487;53.474;49.470;2023-08-20T06:23:51;5.35;;;2.75;;
70866;SDS011;58487;53.474;49.470;2023-08-20T06:26:20;5.38;;;2.83;;
70866;SDS011;58487;53.474;49.470;2023-08-20T06:28:46;7.33;;;3.00;;
70866;SDS011;58487;53.474;49.470;2023-08-20T06:31:12;9.60;;;2.90;;
70866;SDS011;58487;53.474;49.470;2023-08-20T06:33:38;7.57;;;2.88;;
70866;SDS011;58487;53.474;49.470;2023-08-20T06:36:05;9.98;;;3.28;;
70866;SDS011;58487;53.474;49.470;2023-08-20T06:38:31;9.55;;;3.10;;
70866;SDS011;58487;53.474;49.470;2023-08-20T06:40:57;9.53;;;2.77;;
70866;SDS011;58487;53.474;49.470;2023-08-20T06:43:23;5.43;;;2.40;;
70866;SDS011;58487;53.474;49.470;2023-08-20T06:45:49;6.38;;;3.05;;
70866;SDS011;58487;53.474;49.470;2023-08-20T06:48:16;8.93;;;2.70;;
70866;SDS011;58487;53.474;49.470;2023-08-20T06:50:45;6.72;;;2.50;;
70866;SDS011;58487;53.474;49.470;2023-08-20T06:53:12;5.93;;;2.60;;
70866;SDS011;58487;53.474;49.470;2023-08-20T06:55:38;7.05;;;2.88;;
70866;SDS011;58487;53.474;49.470;2023-08-20T06:58:04;8.82;;;2.80;;
70866;SDS011;58487;53.474;49.470;2023-08-20T07:00:30;7.15;;;3.00;;
70866;SDS011;58487;53.474;49.470;2023-08-20T07:02:56;7.13;;;2.93;;
70866;SDS011;58487;53.474;49.470;2023-08-20T07:05:22;8.90;;;3.00;;
70866;SDS011;58487;53.474;49.470;2023-08-20T07:07:48;9.40;;;3.17;;
70866;SDS011;58487;53.474;49.470;2023-08-20T07:10:14;16.60;;;3.20;;
70866;SDS011;58487;53.474;49.470;2023-08-20T07:12:40;7.82;;;3.10;;
70866;SDS011;58487;53.474;49.470;2023-08-20T07:15:06;6.13;;;2.73;;
70866;SDS011;58487;53.474;49.470;2023-08-20T07:17:32;6.88;;;2.97;;
70866;SDS011;58487;53.474;49.470;2023-08-20T07:19:59;10.32;;;3.53;;
70866;SDS011;58487;53.474;49.470;2023-08-20T07:22:25;7.13;;;3.83;;
70866;SDS011;58487;53.474;49.470;2023-08-20T07:24:51;8.48;;;3.80;;
70866;SDS011;58487;53.474;49.470;2023-08-20T07:27:18;14.47;;;3.70;;
70866;SDS011;58487;53.474;49.470;2023-08-20T07:29:44;12.02;;;3.20;;
70866;SDS011;58487;53.474;49.470;2023-08-20T07:32:10;8.10;;;3.10;;
70866;SDS011;58487;53.474;49.470;2023-08-20T07:34:37;7.75;;;3.20;;
70866;SDS011;58487;53.474;49.470;2023-08-20T07:37:03;6.10;;;3.10;;
70866;SDS011;58487;53.474;49.470;2023-08-20T07:39:30;9.87;;;3.57;;
70866;SDS011;58487;53.474;49.470;2023-08-20T07:41:56;7.90;;;4.10;;
70866;SDS011;58487;53.474;49.470;2023-08-20T07:44:22;7.93;;;3.40;;
70866;SDS011;58487;53.474;49.470;2023-08-20T07:46:48;6.03;;;3.40;;
70866;SDS011;58487;53.474;49.470;2023-08-20T07:49:14;9.85;;;4.25;;
70866;SDS011;58487;53.474;49.470;2023-08-20T07:51:40;8.87;;;4.10;;
70866;SDS011;58487;53.474;49.470;2023-08-20T07:54:06;9.35;;;3.78;;
70866;SDS011;58487;53.474;49.470;2023-08-20T07:56:37;9.93;;;4.05;;
70866;SDS011;58487;53.474;49.470;2023-08-20T07:59:03;6.22;;;3.30;;
70866;SDS011;58487;53.474;49.470;2023-08-20T08:01:29;7.68;;;3.40;;
70866;SDS011;58487;53.474;49.470;2023-08-20T08:03:55;8.23;;;4.50;;
70866;SDS011;58487;53.474;49.470;2023-08-20T08:06:21;7.35;;;4.18;;
70866;SDS011;58487;53.474;49.470;2023-08-20T08:08:49;9.20;;;4.10;;
70866;SDS011;58487;53.474;49.470;2023-08-20T08:11:15;11.27;;;5.13;;
70866;SDS011;58487;53.474;49.470;2023-08-20T08:13:41;6.72;;;4.07;;
70866;SDS011;58487;53.474;49.470;2023-08-20T08:16:08;9.03;;;4.67;;
70866;SDS011;58487;53.474;49.470;2023-08-20T08:18:34;8.63;;;4.38;;
70866;SDS011;58487;53.474;49.470;2023-08-20T08:21:00;7.88;;;4.03;;
70866;SDS011;58487;53.474;49.470;2023-08-20T08:23:26;9.35;;;3.67;;
70866;SDS011;58487;53.474;49.470;2023-08-20T08:25:52;7.80;;;4.00;;
70866;SDS011;58487;53.474;49.470;2023-08-20T08:28:18;6.07;;;3.60;;
70866;SDS011;58487;53.474;49.470;2023-08-20T08:30:45;9.38;;;4.30;;
70866;SDS011;58487;53.474;49.470;2023-08-20T08:33:11;8.52;;;4.75;;
70866;SDS011;58487;53.474;49.470;2023-08-20T08:35:37;9.80;;;4.05;;
70866;SDS011;58487;53.474;49.470;2023-08-20T08:38:03;10.45;;;3.90;;
70866;SDS011;58487;53.474;49.470;2023-08-20T08:40:31;9.00;;;3.80;;
70866;SDS011;58487;53.474;49.470;2023-08-20T08:42:57;7.93;;;3.50;;
70866;SDS011;58487;53.474;49.470;2023-08-20T08:45:24;6.45;;;3.92;;
70866;SDS011;58487;53.474;49.470;2023-08-20T08:47:52;8.10;;;3.65;;
70866;SDS011;58487;53.474;49.470;2023-08-20T08:50:20;6.75;;;3.78;;
70866;SDS011;58487;53.474;49.470;2023-08-20T08:52:47;5.83;;;3.20;;
70866;SDS011;58487;53.474;49.470;2023-08-20T08:55:18;10.55;;;4.32;;
70866;SDS011;58487;53.474;49.470;2023-08-20T08:57:45;8.23;;;3.58;;
70866;SDS011;58487;53.474;49.470;2023-08-20T09:00:11;6.53;;;3.90;;
70866;SDS011;58487;53.474;49.470;2023-08-20T09:02:38;5.78;;;3.80;;
70866;SDS011;58487;53.474;49.470;2023-08-20T09:05:05;5.77;;;3.73;;
70866;SDS011;58487;53.474;49.470;2023-08-20T09:10:36;6.68;;;3.88;;
70866;SDS011;58487;53.474;49.470;2023-08-20T09:13:03;8.18;;;3.60;;
70866;SDS011;58487;53.474;49.470;2023-08-20T09:15:31;9.52;;;3.70;;
70866;SDS011;58487;53.474;49.470;2023-08-20T09:18:04;6.90;;;3.87;;
70866;SDS011;58487;53.474;49.470;2023-08-20T09:20:35;6.43;;;3.83;;
70866;SDS011;58487;53.474;49.470;2023-08-20T09:23:02;7.70;;;3.63;;
70866;SDS011;58487;53.474;49.470;2023-08-20T09:25:29;7.40;;;3.90;;
70866;SDS011;58487;53.474;49.470;2023-08-20T09:27:56;10.90;;;3.70;;
70866;SDS011;58487;53.474;49.470;2023-08-20T09:30:22;8.40;;;3.60;;
70866;SDS011;58487;53.474;49.470;2023-08-20T09:33:11;8.43;;;3.90;;
70866;SDS011;58487;53.474;49.470;2023-08-20T09:35:49;10.68;;;4.65;;
70866;SDS011;58487;53.474;49.470;2023-08-20T09:38:19;8.52;;;4.20;;
70866;SDS011;58487;53.474;49.470;2023-08-20T09:40:50;6.10;;;3.65;;
70866;SDS011;58487;53.474;49.470;2023-08-20T09:43:24;6.77;;;3.50;;
70866;SDS011;58487;53.474;49.470;2023-08-20T09:45:56;6.93;;;3.87;;
70866;SDS011;58487;53.474;49.470;2023-08-20T09:48:26;6.93;;;3.88;;
70866;SDS011;58487;53.474;49.470;2023-08-20T09:50:56;5.57;;;3.70;;
70866;SDS011;58487;53.474;49.470;2023-08-20T09:53:27;6.85;;;3.90;;
70866;SDS011;58487;53.474;49.470;2023-08-20T09:56:09;7.47;;;4.00;;
70866;SDS011;58487;53.474;49.470;2023-08-20T09:58:39;5.57;;;3.70;;
70866;SDS011;58487;53.474;49.470;2023-08-20T10:01:05;6.93;;;3.55;;
70866;SDS011;58487;53.474;49.470;2023-08-20T10:03:32;6.07;;;4.25;;
70866;SDS011;58487;53.474;49.470;2023-08-20T10:05:58;5.40;;;3.85;;
70866;SDS011;58487;53.474;49.470;2023-08-20T10:08:26;6.10;;;4.05;;
70866;SDS011;58487;53.474;49.470;2023-08-20T10:10:53;6.63;;;4.20;;
70866;SDS011;58487;53.474;49.470;2023-08-20T10:13:19;6.83;;;3.83;;
70866;SDS011;58487;53.474;49.470;2023-08-20T10:15:45;6.60;;;4.38;;
70866;SDS011;58487;53.474;49.470;2023-08-20T10:18:11;6.63;;;4.10;;
70866;SDS011;58487;53.474;49.470;2023-08-20T10:20:39;8.20;;;4.47;;
70866;SDS011;58487;53.474;49.470;2023-08-20T10:23:06;7.97;;;4.32;;
70866;SDS011;58487;53.474;49.470;2023-08-20T10:25:33;6.60;;;3.93;;
70866;SDS011;58487;53.474;49.470;2023-08-20T10:28:14;7.28;;;4.13;;
70866;SDS011;58487;53.474;49.470;2023-08-20T10:36:18;9.40;;;4.00;;
70866;SDS011;58487;53.474;49.470;2023-08-20T10:38:48;8.57;;;4.40;;
70866;SDS011;58487;53.474;49.470;2023-08-20T10:41:15;7.47;;;4.00;;
70866;SDS011;58487;53.474;49.470;2023-08-20T10:43:47;5.83;;;4.07;;
70866;SDS011;58487;53.474;49.470;2023-08-20T10:48:48;6.43;;;3.95;;
70866;SDS011;58487;53.474;49.470;2023-08-20T10:51:28;6.20;;;4.50;;
70866;SDS011;58487;53.474;49.470;2023-08-20T10:54:08;7.88;;;3.80;;
70866;SDS011;58487;53.474;49.470;2023-08-20T10:59:13;9.10;;;3.85;;
70866;SDS011;58487;53.474;49.470;2023-08-20T11:01:43;6.77;;;4.10;;
70866;SDS011;58487;53.474;49.470;2023-08-20T11:04:12;7.70;;;4.10;;
70866;SDS011;58487;53.474;49.470;2023-08-20T11:06:39;6.05;;;3.90;;
70866;SDS011;58487;53.474;49.470;2023-08-20T11:09:06;8.25;;;3.97;;
70866;SDS011;58487;53.474;49.470;2023-08-20T11:11:32;6.30;;;3.53;;
70866;SDS011;58487;53.474;49.470;2023-08-20T11:14:04;7.05;;;3.60;;
70866;SDS011;58487;53.474;49.470;2023-08-20T11:16:33;7.75;;;4.57;;
70866;SDS011;58487;53.474;49.470;2023-08-20T11:19:01;6.97;;;3.40;;
70866;SDS011;58487;53.474;49.470;2023-08-20T11:21:28;6.40;;;3.60;;
70866;SDS011;58487;53.474;49.470;2023-08-20T11:23:55;9.37;;;4.47;;
70866;SDS011;58487;53.474;49.470;2023-08-20T11:26:21;8.57;;;3.85;;
70866;SDS011;58487;53.474;49.470;2023-08-20T11:28:47;9.90;;;4.60;;
70866;SDS011;58487;53.474;49.470;2023-08-20T11:31:14;7.78;;;3.72;;
70866;SDS011;58487;53.474;49.470;2023-08-20T11:33:40;5.63;;;4.15;;
70866;SDS011;58487;53.474;49.470;2023-08-20T11:36:06;7.10;;;3.60;;
70866;SDS011;58487;53.474;49.470;2023-08-20T11:38:33;7.78;;;4.30;;
70866;SDS011;58487;53.474;49.470;2023-08-20T11:40:59;6.43;;;4.17;;
70866;SDS011;58487;53.474;49.470;2023-08-20T11:43:29;8.10;;;4.05;;
70866;SDS011;58487;53.474;49.470;2023-08-20T11:45:55;9.52;;;4.15;;
70866;SDS011;58487;53.474;49.470;2023-08-20T11:48:22;5.97;;;4.15;;
70866;SDS011;58487;53.474;49.470;2023-08-20T11:50:52;7.55;;;3.90;;
70866;SDS011;58487;53.474;49.470;2023-08-20T11:53:21;6.88;;;4.00;;
70866;SDS011;58487;53.474;49.470;2023-08-20T11:55:51;8.90;;;4.13;;
70866;SDS011;58487;53.474;49.470;2023-08-20T11:58:18;8.20;;;4.10;;
70866;SDS011;58487;53.474;49.470;2023-08-20T12:00:47;6.20;;;3.95;;
70866;SDS011;58487;53.474;49.470;2023-08-20T12:03:17;6.50;;;3.97;;
70866;SDS011;58487;53.474;49.470;2023-08-20T12:05:43;5.53;;;3.50;;
70866;SDS011;58487;53.474;49.470;2023-08-20T12:08:14;7.90;;;4.20;;
70866;SDS011;58487;53.474;49.470;2023-08-20T12:10:44;7.38;;;3.80;;
70866;SDS011;58487;53.474;49.470;2023-08-20T12:13:10;9.55;;;4.18;;
70866;SDS011;58487;53.474;49.470;2023-08-20T12:15:36;5.80;;;3.87;;
70866;SDS011;58487;53.474;49.470;2023-08-20T12:18:03;6.47;;;4.60;;
70866;SDS011;58487;53.474;49.470;2023-08-20T12:20:31;6.65;;;4.30;;
70866;SDS011;58487;53.474;49.470;2023-08-20T12:22:59;6.25;;;4.22;;
70866;SDS011;58487;53.474;49.470;2023-08-20T12:25:30;7.60;;;4.50;;
70866;SDS011;58487;53.474;49.470;2023-08-20T12:27:59;7.68;;;4.35;;
70866;SDS011;58487;53.474;49.470;2023-08-20T12:30:32;6.67;;;4.20;;
70866;SDS011;58487;53.474;49.470;2023-08-20T12:33:00;7.40;;;4.33;;
70866;SDS011;58487;53.474;49.470;2023-08-20T12:35:26;10.50;;;5.10;;
70866;SDS011;58487;53.474;49.470;2023-08-20T12:37:52;7.05;;;4.20;;
70866;SDS011;58487;53.474;49.470;2023-08-20T12:40:18;6.43;;;3.65;;
70866;SDS011;58487;53.474;49.470;2023-08-20T12:42:44;6.65;;;4.25;;
70866;SDS011;58487;53.474;49.470;2023-08-20T12:45:10;8.45;;;4.20;;
70866;SDS011;58487;53.474;49.470;2023-08-20T12:47:38;8.00;;;4.00;;
70866;SDS011;58487;53.474;49.470;2023-08-20T12:50:04;7.80;;;4.10;;
70866;SDS011;58487;53.474;49.470;2023-08-20T12:52:31;5.72;;;3.70;;
70866;SDS011;58487;53.474;49.470;2023-08-20T12:54:58;6.13;;;4.03;;
70866;SDS011;58487;53.474;49.470;2023-08-20T12:57:24;6.93;;;4.30;;
70866;SDS011;58487;53.474;49.470;2023-08-20T12:59:50;8.20;;;4.10;;
70866;SDS011;58487;53.474;49.470;2023-08-20T13:02:17;6.72;;;4.38;;
70866;SDS011;58487;53.474;49.470;2023-08-20T13:04:44;6.28;;;4.13;;
70866;SDS011;58487;53.474;49.470;2023-08-20T13:07:10;7.32;;;4.30;;
70866;SDS011;58487;53.474;49.470;2023-08-20T13:09:38;6.17;;;4.20;;
70866;SDS011;58487;53.474;49.470;2023-08-20T13:12:05;5.27;;;3.70;;
70866;SDS011;58487;53.474;49.470;2023-08-20T13:14:38;6.32;;;3.88;;
70866;SDS011;58487;53.474;49.470;2023-08-20T13:17:06;6.82;;;4.30;;
70866;SDS011;58487;53.474;49.470;2023-08-20T13:19:32;7.93;;;4.40;;
70866;SDS011;58487;53.474;49.470;2023-08-20T13:21:59;7.80;;;4.55;;
70866;SDS011;58487;53.474;49.470;2023-08-20T13:24:25;8.73;;;4.13;;
70866;SDS011;58487;53.474;49.470;2023-08-20T13:26:51;8.02;;;4.10;;
70866;SDS011;58487;53.474;49.470;2023-08-20T13:29:18;15.60;;;4.40;;
70866;SDS011;58487;53.474;49.470;2023-08-20T13:31:44;12.73;;;4.73;;
70866;SDS011;58487;53.474;49.470;2023-08-20T13:34:10;6.68;;;4.10;;
70866;SDS011;58487;53.474;49.470;2023-08-20T13:36:36;10.52;;;4.30;;
70866;SDS011;58487;53.474;49.470;2023-08-20T13:39:02;11.45;;;4.60;;
70866;SDS011;58487;53.474;49.470;2023-08-20T13:41:28;6.68;;;4.28;;
70866;SDS011;58487;53.474;49.470;2023-08-20T13:43:54;9.50;;;4.40;;
70866;SDS011;58487;53.474;49.470;2023-08-20T13:46:20;10.17;;;4.10;;
70866;SDS011;58487;53.474;49.470;2023-08-20T13:48:46;6.00;;;4.23;;
70866;SDS011;58487;53.474;49.470;2023-08-20T13:51:12;6.05;;;4.00;;
70866;SDS011;58487;53.474;49.470;2023-08-20T13:53:39;8.32;;;4.10;;
70866;SDS011;58487;53.474;49.470;2023-08-20T13:56:05;7.32;;;4.00;;
70866;SDS011;58487;53.474;49.470;2023-08-20T13:58:31;8.02;;;4.25;;
70866;SDS011;58487;53.474;49.470;2023-08-20T14:00:57;7.07;;;4.30;;
70866;SDS011;58487;53.474;49.470;2023-08-20T14:03:26;7.38;;;4.57;;
70866;SDS011;58487;53.474;49.470;2023-08-20T14:05:52;8.33;;;4.30;;
70866;SDS011;58487;53.474;49.470;2023-08-20T14:08:19;7.37;;;4.20;;
70866;SDS011;58487;53.474;49.470;2023-08-20T14:10:45;9.05;;;4.15;;
70866;SDS011;58487;53.474;49.470;2023-08-20T14:13:11;7.85;;;4.38;;
70866;SDS011;58487;53.474;49.470;2023-08-20T14:15:37;8.80;;;4.50;;
70866;SDS011;58487;53.474;49.470;2023-08-20T14:18:03;6.72;;;4.40;;
70866;SDS011;58487;53.474;49.470;2023-08-20T14:20:30;9.43;;;5.32;;
70866;SDS011;58487;53.474;49.470;2023-08-20T14:22:55;8.73;;;4.60;;
70866;SDS011;58487;53.474;49.470;2023-08-20T14:25:21;7.45;;;4.63;;
70866;SDS011;58487;53.474;49.470;2023-08-20T14:27:47;6.68;;;4.50;;
70866;SDS011;58487;53.474;49.470;2023-08-20T14:30:13;8.90;;;4.25;;
70866;SDS011;58487;53.474;49.470;2023-08-20T14:32:39;7.63;;;4.32;;
70866;SDS011;58487;53.474;49.470;2023-08-20T14:35:07;8.53;;;4.10;;
70866;SDS011;58487;53.474;49.470;2023-08-20T14:37:34;8.13;;;3.90;;
70866;SDS011;58487;53.474;49.470;2023-08-20T14:40:00;8.73;;;4.30;;
70866;SDS011;58487;53.474;49.470;2023-08-20T14:42:27;8.63;;;4.00;;
70866;SDS011;58487;53.474;49.470;2023-08-20T14:44:54;7.10;;;3.67;;
70866;SDS011;58487;53.474;49.470;2023-08-20T14:47:20;10.23;;;4.43;;
70866;SDS011;58487;53.474;49.470;2023-08-20T14:49:46;8.33;;;3.93;;
70866;SDS011;58487;53.474;49.470;2023-08-20T14:52:18;6.57;;;4.22;;